• Join FlightAware (Why Join?)
  • Login
  • US Flag 
07:01PM EDT


 

Airport Tracker/Info


-or-


 

Live Flight TrackerFlight Track Log ✈ ASQ5685 ✈ 13-Jun-2013 ✈ KATL - KIAD

Flight Track Log - Related Links

Times and Time Zones

All times are in EDT time to prevent confusion due to time zone crossing. See the ASQ5685 flight status page for this flight to view local times or setup timezone preferences in your user account.

Time Position Orientation Groundspeed Altitude Reporting Facility
EDT Latitude Longitude Course Direction KTS MPH feet Rate Location/Type
10:13AM 33.6703 -84.5231 340° North 415 478 3,900  Level Atlanta Center
10:14AM 33.6833 -84.5667 290° West 233 268 5,100 1,980 Climbing Atlanta TRACON
10:15AM 33.7500 -84.5833 348° North 283 326 7,200 1,980 Climbing Atlanta TRACON
10:16AM 33.8938 -84.2271 320° Northwest  Level FlightAware Approximate
10:16AM 33.8333 -84.5667 North 308 354 9,300  Level Atlanta TRACON
10:17AM 33.9887 -84.2918 339° North  Level FlightAware Approximate
10:17AM 33.9478 -84.4919 28° Northeast 335 386 10,700  Level Atlanta Center
10:18AM 34.0923 -84.3389 339° North  Level FlightAware Approximate
10:18AM 34.0419 -84.4575 17° North 346 398 11,900  Level Atlanta Center
10:19AM 34.1970 -84.3783 340° North  Level FlightAware Approximate
10:19AM 34.1442 -84.4428 North 360 414 13,500  Level Atlanta Center
10:20AM 34.2425 -84.4283 North 360 414 14,900 1,260 Climbing Atlanta Center
10:21AM 34.3447 -84.4211 North 366 421 16,100 1,200 Climbing Atlanta Center
10:22AM 34.4492 -84.4192 North 366 421 17,400 1,200 Climbing Atlanta Center
10:23AM 34.5408 -84.4169 North 366 421 18,500 1,200 Climbing Atlanta Center
10:24AM 34.6431 -84.4150 North 366 421 19,900 1,200 Climbing Atlanta Center
10:25AM 34.7453 -84.4128 North 361 415 21,000 1,080 Climbing Atlanta Center
10:26AM 34.8456 -84.4108 North 361 415 22,100 840 Climbing Atlanta Center
10:27AM 34.9561 -84.4089 North 362 417 22,700 600 Climbing Atlanta Center
10:28AM 35.0625 -84.4067 North 362 417 23,300 600 Climbing Atlanta Center
10:29AM 35.1711 -84.4022 North 373 429 24,000 600 Climbing Atlanta Center
10:30AM 35.2817 -84.4000 North 384 442 24,600 600 Climbing Atlanta Center
10:31AM 35.3797 -84.3981 North 390 449 25,200 600 Climbing Atlanta Center
10:32AM 35.4903 -84.3958 North 390 449 25,800 600 Climbing Atlanta Center
10:33AM 35.5989 -84.3911 North 390 449 26,400 600 Climbing Atlanta Center
10:34AM 35.7072 -84.3892 North 385 443 27,000 600 Climbing Atlanta Center
10:35AM 35.8200 -84.3869 North 385 443 27,600 600 Climbing Atlanta Center
10:36AM 35.9264 -84.3822 North 385 443 28,200 600 Climbing Atlanta Center
10:37AM 36.0328 -84.3803 North 385 443 28,800 600 Climbing Atlanta Center
10:38AM 36.1414 -84.3767 North 386 444 29,400 600 Climbing Indianapolis Center
10:39AM 36.2481 -84.3742 North 385 443 30,000 540 Climbing Indianapolis Center
10:40AM 36.3547 -84.3714 North 385 443 30,600 600 Climbing Indianapolis Center
10:42AM 36.4756 -84.3353 14° North 394 453 31,300 600 Climbing Indianapolis Center
10:43AM 36.5789 -84.2886 20° North 394 453 31,900 300 Climbing Indianapolis Center
10:44AM 36.6836 -84.2425 19° North 395 455 32,000  Climbing Indianapolis Center
10:45AM 36.7903 -84.1939 20° North 402 463 32,000  Level Indianapolis Center
10:46AM 36.8978 -84.1450 20° North 408 470 32,000  Level Indianapolis Center
10:47AM 37.0044 -84.0961 20° North 407 468 32,000  Level Indianapolis Center
10:48AM 37.1317 -84.0381 20° North 414 476 32,000  Level Indianapolis Center
10:49AM 37.2397 -83.9897 20° North 411 473 32,000  Level Indianapolis Center
10:50AM 37.3458 -83.9367 22° Northeast 411 473 32,000  Level Indianapolis Center
10:51AM 37.4389 -83.8425 39° Northeast 436 502 32,000  Level Indianapolis Center
10:52AM 37.5253 -83.7453 42° Northeast 420 483 32,000  Level Indianapolis Center
10:53AM 37.6128 -83.6494 41° Northeast 416 479 32,000  Level Indianapolis Center
10:54AM 37.6975 -83.5539 42° Northeast 407 468 32,000  Level Indianapolis Center
10:55AM 37.7808 -83.4567 43° Northeast 405 466 32,000  Level Indianapolis Center
10:56AM 37.8697 -83.3294 48° Northeast 415 478 32,000  Level Indianapolis Center
10:57AM 37.9406 -83.2178 51° Northeast 412 474 32,000  Level Indianapolis Center
10:58AM 38.0142 -83.1058 50° Northeast 413 475 32,000  Level Indianapolis Center
10:59AM 38.0869 -82.9931 51° Northeast 413 475 32,000  Level Indianapolis Center
11:00AM 38.1622 -82.8825 49° Northeast 414 476 32,000 -180 Level Indianapolis Center
11:01AM 38.2400 -82.7769 47° Northeast 409 471 31,700 -540 Descending Indianapolis Center
11:02AM 38.3189 -82.6617 49° Northeast 429 494 31,000 -360 Descending Indianapolis Center
11:03AM 38.4125 -82.5275 48° Northeast 432 497 31,000  Level Indianapolis Center
11:04AM 38.4864 -82.4186 49° Northeast 429 494 31,000  Level Indianapolis Center
11:05AM 38.5656 -82.3047 48° Northeast 428 493 31,000  Level Indianapolis Center
11:06AM 38.6431 -82.1906 49° Northeast 426 490 31,000  Level Indianapolis Center
11:07AM 38.7211 -82.0756 49° Northeast 426 490 31,000  Level Indianapolis Center
11:08AM 38.8011 -81.9603 48° Northeast 430 495 31,000  Level Indianapolis Center
11:09AM 38.8789 -81.8400 50° Northeast 434 499 31,000  Level Indianapolis Center
11:10AM 38.9572 -81.7186 50° Northeast 436 502 31,000  Level Indianapolis Center
11:11AM 39.0347 -81.5950 51° Northeast 439 505 31,000  Level Indianapolis Center
11:12AM 39.1264 -81.4439 52° Northeast 445 512 31,000  Level Indianapolis Center
11:13AM 39.1706 -81.2867 70° East 468 539 31,000  Level Indianapolis Center
11:14AM 39.2128 -81.1303 71° East 463 533 31,000  Level Indianapolis Center
11:15AM 39.2567 -80.9742 70° East 464 534 31,000  Level Indianapolis Center
11:16AM 39.3003 -80.8175 70° East 462 532 31,000  Level Indianapolis Center
11:18AM 39.3439 -80.6606 70° East 464 534 31,000  Level Indianapolis Center
11:19AM 39.3886 -80.5028 70° East 467 537 31,000 -60 Level Indianapolis Center
11:20AM 39.4672 -80.3703 52° Northeast 464 534 30,900 -660 Descending Indianapolis Center
11:21AM 39.5600 -80.2042 54° Northeast 473 544 29,700 -1,080 Descending Indianapolis Center
11:22AM 39.6317 -80.0772 54° Northeast 445 512 28,700 -1,020 Descending Indianapolis Center
11:22AM 39.6614 -80.0383 45° Northeast 446 513 28,300 -840 Descending Cleveland Center
11:24AM 39.6311 -79.7956 99° East 430 495 27,000 -540 Descending Indianapolis Center
11:25AM 39.5867 -79.6575 113° Southeast 418 481 27,000  Level Indianapolis Center
11:25AM 39.5569 -79.5536 110° East 406 467 27,000  Level Washington Center
11:26AM 39.5094 -79.4111 113° Southeast 419 482 27,000 -360 Level Washington Center
11:27AM 39.4542 -79.2469 114° Southeast 438 504 26,400 -1,260 Descending Washington Center
11:28AM 39.4192 -79.0867 106° East 450 518 24,500 -2,280 Descending Washington Center
11:29AM 39.3903 -78.9269 103° East 456 525 21,900 -2,580 Descending Washington Center
11:30AM 39.3633 -78.7753 103° East 444 511 19,500 -2,460 Descending Washington Center
11:31AM 39.3356 -78.6344 104° East 428 493 17,000 -2,460 Descending Washington Center
11:32AM 39.3119 -78.4942 102° East 408 470 14,600 -2,460 Descending Washington Center
11:33AM 39.2819 -78.3561 106° East 395 455 12,200 -1,920 Descending Washington Center
11:34AM 39.2658 -78.2294 99° East 377 434 10,900 -1,440 Descending Washington Center
11:35AM 39.2622 -78.1086 92° East 355 409 9,300 -1,560 Descending Washington Center
11:36AM 39.2583 -77.9906 92° East 342 394 7,800 -1,500 Descending Washington Center
11:37AM 39.2525 -77.8697 94° East 342 394 6,300 -1,440 Descending Washington Center
11:38AM 39.2461 -77.7569 94° East 324 373 5,000 -720 Descending Washington Center
11:39AM 39.2417 -77.6578 93° East 300 345 5,000  Level Washington Center
11:41AM 39.2333 -77.5500 96° East 280 322 5,000 -300 Level Potomac TRACON
11:41AM 39.2833 -77.5000 38° Northeast 213 245 4,500 -540 Descending Potomac TRACON
11:42AM 39.2833 -77.4333 90° East 246 283 4,000 -240 Descending Potomac TRACON
11:43AM 39.2333 -77.4333 180° South 176 203 4,100 -180 Climbing Potomac TRACON
11:44AM 39.1833 -77.4333 180° South 178 205 3,700 -600 Descending Potomac TRACON
11:45AM 39.1333 -77.4333 180° South 182 209 3,000 -720 Descending Potomac TRACON